MMEP

Amado Nervo National Airport

Airport
ICAO code
MMEP
IATA Code
TPQ
Summary
ICAO Region
CARSAM
ICAO Territory
Location

Tepic, Nayarit

Serving
Tepic
Elevation
3020 ft
Coordinates
21° 25' 10" N , 104° 50' 33" W
KCC
Metar
MMEP 231249Z 00000KT 12SM SKC 12/11 A3002 RMK RTS

Amado Nervo national Airport or Tepic Airport is an international airport located at Tepic and the main airport in the Mexican state of Nayarit.

Climatology

Humid subtropical climate (Köppen climate classification Cwa)

Runways

Designator Length Width Surface Rops
2/20 2300 45 ASP No/No

Airport map

Aerial View

SKYbrary Partners:

Safety knowledge contributed by: